Ochre River, Canada
Current Conditions -  °F | °C
As of 12:00 PM on Friday 24 Oct 2014 (Local Time) from CYDN Reporting Station
Clear Clear  
Wind Chill: 64°   Ceiling: Unl
Heat Index: 64°   Visibility: 9mi
Dew Point: 39°   Wind: 26mph
Humidity: 40%   Direction: 280°W
Pressure: 29.56"   Gusts: 38mph
Location:  51.05°N, 99.78°W
Report Text: CYDN 241700Z AUTO 28023G33KT 9SM CLR 18/04 A2956 RMK PRESFR SLP014 DENSITY ALT 1900FT
Loading
Personal Weather Stations






























Interactive Weather Map
Tropical Storm Tracking
New forecast layout! Learn more

10-Day Weather Forecast

Advertisements
Track Severe Weather on mobile